Time;durP1;ratioP1;P1;durP2;ratioP2;P2;SDS_P1;SDS_P2;PMS_P1;PMS_P2;Temp;Humidity;BMP_temperature;BMP_pressure;BME280_temperature;BME280_humidity;BME280_pressure;Samples;Min_cycle;Max_cycle;Signal;HPM_P1;HPM_P2
2023/09/28 00:02:23;;;;;;;16.92;10.65;;;487.30;2380.80;;;;;;5067987;28;20055;-74
2023/09/28 00:04:49;;;;;;;14.45;10.35;;;487.30;2380.80;;;;;;5071143;28;20060;-73
2023/09/28 00:07:14;;;;;;;18.13;9.88;;;487.30;2380.80;;;;;;5070820;28;20482;-73
2023/09/28 00:09:40;;;;;;;17.08;10.15;;;512.00;2380.80;;;;;;5071501;28;20028;-73
2023/09/28 00:12:06;;;;;;;14.80;10.75;;;487.30;2380.80;;;;;;5071387;28;20473;-73
2023/09/28 00:14:32;;;;;;;21.60;11.27;;;512.00;2380.80;;;;;;5071363;28;20358;-73
2023/09/28 00:16:57;;;;;;;20.52;10.75;;;487.30;2380.80;;;;;;5071269;28;20039;-73
2023/09/28 00:19:26;;;;;;;19.13;10.23;;;487.20;2380.80;;;;;;5071426;28;20381;-74
2023/09/28 00:21:52;;;;;;;14.52;9.93;;;487.30;2380.80;;;;;;5071201;28;20035;-73
2023/09/28 00:24:17;;;;;;;18.45;10.40;;;487.30;2380.80;;;;;;5071278;28;20013;-73
2023/09/28 00:26:43;;;;;;;20.15;10.80;;;487.30;2380.80;;;;;;5069793;28;20147;-73
2023/09/28 00:29:09;;;;;;;13.57;10.23;;;487.20;2380.80;;;;;;5071204;28;20044;-73
2023/09/28 00:31:34;;;;;;;13.57;10.32;;;487.20;2380.80;;;;;;5071123;28;20103;-73
2023/09/28 00:34:00;;;;;;;16.10;10.52;;;487.20;2380.80;;;;;;5071477;28;20024;-73
2023/09/28 00:36:26;;;;;;;14.27;10.32;;;487.30;2380.80;;;;;;5070894;28;20033;-73
2023/09/28 00:38:51;;;;;;;14.10;9.50;;;487.20;2380.80;;;;;;5070877;28;20025;-73
2023/09/28 00:41:19;;;;;;;15.65;10.02;;;;;;;;;;5071524;28;20066;-73
2023/09/28 00:43:45;;;;;;;14.00;10.38;;;487.10;2380.80;;;;;;5086532;28;20027;-73
2023/09/28 00:46:16;;;;;;;15.82;10.65;;;487.00;2380.80;;;;;;5071188;28;20032;-73
2023/09/28 00:49:05;;;;;;;15.68;11.15;;;487.00;2380.80;;;;;;5067323;28;20017;-73
2023/09/28 00:51:34;;;;;;;15.18;10.65;;;487.00;2380.80;;;;;;5071092;28;20056;-73
2023/09/28 00:54:00;;;;;;;16.80;10.15;;;487.00;2380.80;;;;;;5070858;28;20023;-74
2023/09/28 00:56:26;;;;;;;21.77;11.05;;;486.90;2380.80;;;;;;5071141;28;20072;-73
2023/09/28 00:58:54;;;;;;;15.88;10.63;;;;;;;;;;5070710;28;20465;-74
2023/09/28 01:01:20;;;;;;;17.35;11.57;;;;;;;;;;5071347;28;20028;-74
2023/09/28 01:03:46;;;;;;;15.48;11.07;;;;;;;;;;5074546;28;20017;-73
2023/09/28 01:06:12;;;;;;;14.40;10.25;;;;;;;;;;5074643;28;20017;-74
2023/09/28 01:08:38;;;;;;;24.63;10.60;;;;;;;;;;5073992;28;20116;-75
2023/09/28 01:11:08;;;;;;;15.52;11.23;;;486.70;2380.80;;;;;;5073983;28;20064;-74
2023/09/28 01:13:34;;;;;;;18.02;11.35;;;486.70;2380.80;;;;;;5074203;28;20029;-74
2023/09/28 01:16:00;;;;;;;14.88;10.07;;;486.70;2380.80;;;;;;5072926;28;20056;-74
2023/09/28 01:18:25;;;;;;;19.38;10.38;;;486.70;2380.80;;;;;;5074477;28;20492;-74
2023/09/28 01:20:51;;;;;;;15.55;10.95;;;486.70;2380.80;;;;;;5074351;28;20028;-74
2023/09/28 01:23:17;;;;;;;23.45;11.50;;;486.70;2380.80;;;;;;5074019;28;20020;-74
2023/09/28 01:25:47;;;;;;;14.07;10.60;;;486.70;2380.80;;;;;;5073621;28;20023;-74
2023/09/28 01:28:13;;;;;;;22.98;11.40;;;486.70;2380.80;;;;;;5074024;28;20572;-73
2023/09/28 01:30:39;;;;;;;21.33;11.38;;;486.70;2380.80;;;;;;5074027;28;20117;-74
2023/09/28 01:33:05;;;;;;;15.70;11.38;;;486.70;2380.80;;;;;;5073792;28;20055;-73
2023/09/28 01:35:31;;;;;;;17.23;11.13;;;486.50;2380.80;;;;;;5073914;28;20013;-73
2023/09/28 01:38:09;;;;;;;17.83;11.18;;;486.50;2380.80;;;;;;5074239;28;20024;-73
2023/09/28 01:40:35;;;;;;;15.10;11.15;;;486.50;2380.80;;;;;;5070384;28;20497;-73
2023/09/28 01:43:00;;;;;;;16.00;11.20;;;486.50;2380.80;;;;;;5073544;28;20151;-74
2023/09/28 01:45:26;;;;;;;20.33;11.77;;;486.50;2380.80;;;;;;5070543;28;20091;-74
2023/09/28 01:47:52;;;;;;;16.17;11.68;;;486.50;2380.80;;;;;;5088942;28;20029;-74
2023/09/28 01:50:18;;;;;;;17.90;11.90;;;486.50;2380.80;;;;;;5073851;28;20021;-74
2023/09/28 01:52:44;;;;;;;23.35;13.27;;;486.40;2380.80;;;;;;5073405;28;20066;-73
2023/09/28 01:55:09;;;;;;;17.77;11.57;;;486.40;2380.80;;;;;;5072064;28;20416;-73
2023/09/28 01:57:35;;;;;;;16.98;11.45;;;486.50;2380.80;;;;;;5073651;28;20075;-76
2023/09/28 02:00:05;;;;;;;22.25;12.40;;;486.40;2380.80;;;;;;5075503;28;20488;-74
2023/09/28 02:02:34;;;;;;;25.10;12.52;;;486.50;2380.80;;;;;;5074538;28;20020;-74
2023/09/28 02:05:00;;;;;;;18.30;12.05;;;486.40;2380.80;;;;;;5069856;28;20381;-74
2023/09/28 02:07:26;;;;;;;23.02;12.57;;;486.40;2380.80;;;;;;5073293;28;20020;-75
2023/09/28 02:09:52;;;;;;;19.52;12.07;;;461.70;2380.80;;;;;;5088279;28;20392;-74
2023/09/28 02:12:17;;;;;;;25.13;13.40;;;461.70;2380.80;;;;;;5070554;28;20035;-74
2023/09/28 02:14:43;;;;;;;18.90;11.95;;;486.50;2380.80;;;;;;5073191;28;20078;-75
2023/09/28 02:17:09;;;;;;;31.23;14.77;;;461.70;2380.80;;;;;;5073068;28;20038;-74
2023/09/28 02:19:35;;;;;;;26.08;14.65;;;461.70;2380.80;;;;;;5071753;28;20039;-74
2023/09/28 02:22:02;;;;;;;23.05;14.82;;;461.60;2380.80;;;;;;5073414;28;20016;-75
2023/09/28 02:24:28;;;;;;;25.38;15.55;;;461.70;2380.80;;;;;;5072870;28;20017;-74
2023/09/28 02:26:54;;;;;;;28.70;15.55;;;461.70;2380.80;;;;;;5072721;28;20027;-74
2023/09/28 02:29:20;;;;;;;25.42;16.42;;;461.70;2380.80;;;;;;5072726;28;20054;-74
2023/09/28 02:31:46;;;;;;;22.08;15.23;;;461.60;2380.80;;;;;;5072668;28;20095;-74
2023/09/28 02:34:11;;;;;;;25.15;15.60;;;461.50;2380.80;;;;;;5072650;28;20469;-74
2023/09/28 02:36:37;;;;;;;28.42;16.85;;;461.50;2380.80;;;;;;5072614;28;20800;-75
2023/09/28 02:39:09;;;;;;;26.70;16.50;;;461.50;2380.80;;;;;;5072161;28;20025;-74
2023/09/28 02:41:37;;;;;;;27.98;16.52;;;461.50;2380.80;;;;;;5068580;28;20116;-74
2023/09/28 02:44:03;;;;;;;28.50;17.35;;;461.40;2380.80;;;;;;5072602;28;20110;-75
2023/09/28 02:46:29;;;;;;;30.85;17.70;;;461.40;2380.80;;;;;;5072675;28;20020;-74
2023/09/28 02:48:55;;;;;;;28.00;16.58;;;461.40;2380.80;;;;;;5072559;28;20147;-75
2023/09/28 02:51:22;;;;;;;34.92;17.13;;;461.40;2380.80;;;;;;5072275;28;20036;-74
2023/09/28 02:53:47;;;;;;;34.10;18.38;;;461.20;2380.80;;;;;;5072245;28;20021;-75
2023/09/28 02:56:13;;;;;;;37.65;18.50;;;461.30;2380.80;;;;;;5072134;28;20389;-74
2023/09/28 02:58:39;;;;;;;32.13;18.00;;;461.20;2380.80;;;;;;5072504;28;20102;-74
2023/09/28 03:01:05;;;;;;;29.70;19.05;;;461.20;2380.80;;;;;;5071952;28;20029;-74
2023/09/28 03:03:30;;;;;;;29.13;17.77;;;461.20;2380.80;;;;;;5072104;28;20016;-74
2023/09/28 03:05:56;;;;;;;30.85;19.17;;;461.20;2380.80;;;;;;5071937;28;20029;-74
2023/09/28 03:08:22;;;;;;;33.63;17.92;;;461.20;2380.80;;;;;;5072232;28;20020;-74
2023/09/28 03:10:48;;;;;;;31.35;18.92;;;461.10;2380.80;;;;;;5071956;28;20059;-74
2023/09/28 03:13:13;;;;;;;32.25;16.55;;;461.00;2380.80;;;;;;5071834;28;20056;-74
2023/09/28 03:15:43;;;;;;;35.47;20.65;;;461.00;2380.80;;;;;;5071658;28;20029;-75
2023/09/28 03:18:10;;;;;;;30.90;19.17;;;461.10;2380.80;;;;;;5070784;28;20032;-74
2023/09/28 03:20:36;;;;;;;35.08;19.38;;;461.10;2380.80;;;;;;5071699;28;20017;-74
2023/09/28 03:23:02;;;;;;;33.95;19.15;;;461.10;2380.80;;;;;;5072011;28;20445;-75
2023/09/28 03:25:28;;;;;;;39.17;18.83;;;461.10;2380.80;;;;;;5070726;28;20056;-74
2023/09/28 03:27:55;;;;;;;35.53;19.92;;;461.10;2380.80;;;;;;5071908;28;20028;-74
2023/09/28 03:30:22;;;;;;;34.97;17.58;;;461.10;2380.80;;;;;;5071746;28;20115;-74
2023/09/28 03:32:48;;;;;;;36.92;18.33;;;461.10;2380.80;;;;;;5071872;28;20095;-74
2023/09/28 03:35:16;;;;;;;30.08;17.95;;;461.00;2380.80;;;;;;5071710;28;20012;-74
2023/09/28 03:37:43;;;;;;;31.25;16.80;;;461.10;2380.80;;;;;;5068532;28;20045;-74
2023/09/28 03:40:10;;;;;;;29.92;17.40;;;461.00;2380.80;;;;;;5071202;28;20524;-74
2023/09/28 03:42:40;;;;;;;28.23;17.85;;;461.00;2380.80;;;;;;5071665;28;20108;-75
2023/09/28 03:45:11;;;;;;;31.63;17.05;;;461.00;2380.80;;;;;;5071559;28;20013;-75
2023/09/28 03:47:40;;;;;;;32.53;16.30;;;461.00;2380.80;;;;;;5069718;28;20432;-74
2023/09/28 03:50:09;;;;;;;30.55;17.40;;;461.00;2380.80;;;;;;5071466;28;20049;-75
2023/09/28 03:52:37;;;;;;;35.38;15.25;;;461.00;2380.80;;;;;;5071891;28;20031;-74
2023/09/28 03:55:03;;;;;;;27.98;16.60;;;460.90;2380.80;;;;;;5070316;28;20060;-74
2023/09/28 03:57:29;;;;;;;35.00;16.15;;;461.00;2380.80;;;;;;5071439;28;20036;-74
2023/09/28 03:59:55;;;;;;;26.65;16.25;;;461.10;2380.80;;;;;;5071206;28;20021;-74
2023/09/28 04:02:21;;;;;;;28.02;16.92;;;461.00;2380.80;;;;;;5071640;28;20021;-74
2023/09/28 04:04:47;;;;;;;35.72;17.58;;;461.10;2380.80;;;;;;5071268;28;20474;-75
2023/09/28 04:07:13;;;;;;;31.17;17.25;;;461.00;2380.80;;;;;;5070326;28;20028;-74
2023/09/28 04:09:38;;;;;;;27.80;16.10;;;461.00;2380.80;;;;;;5070869;28;20020;-75
2023/09/28 04:12:05;;;;;;;33.75;16.50;;;460.90;2380.80;;;;;;5071494;28;20036;-74
2023/09/28 04:14:30;;;;;;;28.52;17.58;;;460.90;2380.80;;;;;;5071652;28;20481;-74
2023/09/28 04:16:56;;;;;;;33.67;16.67;;;460.90;2380.80;;;;;;5071541;28;20024;-74
2023/09/28 04:19:22;;;;;;;34.40;18.63;;;460.80;2380.80;;;;;;5071170;28;20074;-74
2023/09/28 04:21:48;;;;;;;33.83;17.95;;;460.80;2380.80;;;;;;5071460;28;21601;-74
2023/09/28 04:24:14;;;;;;;28.95;16.33;;;436.10;2355.20;;;;;;5069609;28;20075;-73
2023/09/28 04:26:40;;;;;;;29.33;17.13;;;436.00;2355.20;;;;;;5071154;28;20062;-74
2023/09/28 04:29:06;;;;;;;29.55;16.35;;;436.10;2355.20;;;;;;5071358;28;20062;-74
2023/09/28 04:31:31;;;;;;;26.33;15.90;;;436.10;2355.20;;;;;;5071231;28;20021;-74
2023/09/28 04:33:57;;;;;;;32.00;17.80;;;436.00;2355.20;;;;;;5071035;28;20020;-74
2023/09/28 04:36:24;;;;;;;22.67;15.68;;;435.90;2355.20;;;;;;5073102;28;20067;-72
2023/09/28 04:38:49;;;;;;;36.75;16.75;;;436.00;2355.20;;;;;;5074839;28;20028;-75
2023/09/28 04:41:16;;;;;;;30.58;16.95;;;436.10;2355.20;;;;;;5074551;28;20037;-73
2023/09/28 04:43:41;;;;;;;25.45;14.88;;;436.00;2355.20;;;;;;5075107;28;20027;-75
2023/09/28 04:46:07;;;;;;;32.20;16.73;;;435.90;2355.20;;;;;;5072131;28;20111;-74
2023/09/28 04:48:33;;;;;;;28.60;15.55;;;435.90;2355.20;;;;;;5069411;28;20025;-74
2023/09/28 04:50:59;;;;;;;28.83;15.73;;;435.90;2355.20;;;;;;5078169;28;20032;-74
2023/09/28 04:53:26;;;;;;;29.05;17.20;;;436.00;2355.20;;;;;;5065839;28;20359;-73
2023/09/28 04:55:52;;;;;;;30.73;15.85;;;436.10;2355.20;;;;;;5065310;28;20024;-74
2023/09/28 04:58:18;;;;;;;35.13;16.80;;;436.00;2355.20;;;;;;5071052;28;20024;-74
2023/09/28 05:00:44;;;;;;;31.05;16.45;;;436.00;2355.20;;;;;;5071449;28;20021;-73
2023/09/28 05:03:09;;;;;;;29.70;16.50;;;435.80;2355.20;;;;;;5067426;28;20159;-74
2023/09/28 05:05:35;;;;;;;32.88;15.55;;;435.90;2355.20;;;;;;5085917;28;20416;-74
2023/09/28 05:08:02;;;;;;;31.23;17.45;;;435.90;2355.20;;;;;;5067528;28;20044;-73
2023/09/28 05:10:28;;;;;;;30.63;16.75;;;435.90;2355.20;;;;;;5089659;28;20110;-73
2023/09/28 05:12:53;;;;;;;28.70;15.30;;;435.80;2355.20;;;;;;5064082;28;20060;-74
2023/09/28 05:15:20;;;;;;;25.00;15.68;;;435.80;2355.20;;;;;;5071754;28;20024;-73
2023/09/28 05:17:47;;;;;;;28.85;16.95;;;435.90;2355.20;;;;;;5065556;28;20043;-74
2023/09/28 05:20:13;;;;;;;39.25;15.88;;;435.90;2355.20;;;;;;5075892;28;20020;-75
2023/09/28 05:22:38;;;;;;;37.30;18.20;;;436.00;2355.20;;;;;;5064001;28;20020;-75
2023/09/28 05:25:06;;;;;;;42.38;17.75;;;436.10;2355.20;;;;;;5058825;28;20570;-76
2023/09/28 05:27:33;;;;;;;33.05;16.98;;;436.10;2355.20;;;;;;5074556;28;20081;-76
2023/09/28 05:29:59;;;;;;;26.55;15.35;;;460.80;2380.80;;;;;;5074418;28;20016;-76
2023/09/28 05:32:24;;;;;;;29.30;17.17;;;460.90;2380.80;;;;;;5079239;28;20029;-76
2023/09/28 05:34:50;;;;;;;32.38;15.68;;;460.90;2380.80;;;;;;5070754;28;20490;-77
2023/09/28 05:37:16;;;;;;;29.75;16.80;;;461.00;2380.80;;;;;;5068888;28;20039;-76
2023/09/28 05:39:42;;;;;;;29.45;17.27;;;460.90;2380.80;;;;;;5075683;28;20481;-75
2023/09/28 05:42:07;;;;;;;36.10;18.23;;;461.10;2380.80;;;;;;5072409;28;20058;-75
2023/09/28 05:44:33;;;;;;;56.00;27.70;;;461.20;2380.80;;;;;;5073798;28;20039;-75
2023/09/28 05:46:59;;;;;;;62.03;30.67;;;461.20;2380.80;;;;;;5066506;28;20063;-77
2023/09/28 05:49:26;;;;;;;62.83;30.30;;;461.10;2380.80;;;;;;5073834;28;20053;-75
2023/09/28 05:51:52;;;;;;;76.05;33.03;;;461.00;2380.80;;;;;;5078328;28;20085;-77
2023/09/28 05:54:18;;;;;;;66.45;33.03;;;460.90;2380.80;;;;;;5070266;28;20055;-77
2023/09/28 05:56:44;;;;;;;70.22;32.22;;;461.10;2380.80;;;;;;5078847;28;20111;-76
2023/09/28 05:59:10;;;;;;;58.28;27.83;;;461.10;2380.80;;;;;;5060528;28;20017;-77
2023/09/28 06:01:37;;;;;;;56.90;27.08;;;461.20;2380.80;;;;;;5070704;28;20024;-77
2023/09/28 06:04:04;;;;;;;53.03;25.83;;;461.20;2380.80;;;;;;5079563;28;20482;-76
2023/09/28 06:06:30;;;;;;;49.58;23.95;;;461.20;2380.80;;;;;;5065550;28;20025;-75
2023/09/28 06:08:55;;;;;;;44.75;24.38;;;461.40;2380.80;;;;;;5076577;28;20020;-76
2023/09/28 06:11:21;;;;;;;49.75;24.88;;;461.40;2380.80;;;;;;5067831;28;20379;-77
2023/09/28 06:13:47;;;;;;;49.83;25.85;;;461.60;2380.80;;;;;;5082233;28;20025;-78
2023/09/28 06:16:14;;;;;;;59.28;25.40;;;461.70;2380.80;;;;;;5066943;28;20092;-76
2023/09/28 06:18:44;;;;;;;53.22;26.40;;;486.40;2380.80;;;;;;5082871;28;20043;-77
2023/09/28 06:21:09;;;;;;;55.65;28.33;;;486.50;2380.80;;;;;;5074003;28;20035;-78
2023/09/28 06:23:35;;;;;;;53.25;28.48;;;486.70;2380.80;;;;;;5075172;28;20021;-77
2023/09/28 06:26:01;;;;;;;56.95;27.98;;;487.00;2380.80;;;;;;5081111;28;20140;-76
2023/09/28 06:28:28;;;;;;;46.83;26.90;;;487.10;2380.80;;;;;;5063433;28;20029;-75
2023/09/28 06:30:54;;;;;;;45.65;24.27;;;487.20;2380.80;;;;;;5057917;28;20413;-75
2023/09/28 06:33:24;;;;;;;48.42;23.48;;;512.00;2380.80;;;;;;5066536;28;20032;-75
2023/09/28 06:35:50;;;;;;;43.92;22.10;;;512.40;2380.80;;;;;;5067119;28;20024;-75
2023/09/28 06:38:16;;;;;;;43.83;20.30;;;512.70;2380.80;;;;;;5063291;28;20024;-75
2023/09/28 06:40:47;;;;;;;30.80;16.95;;;512.90;2380.80;;;;;;5081643;28;20055;-75
2023/09/28 06:43:13;;;;;;;29.52;14.93;;;537.70;2406.40;;;;;;5071573;28;20068;-74
2023/09/28 06:45:38;;;;;;;21.38;12.77;;;538.10;2406.40;;;;;;5080735;28;20016;-75
2023/09/28 06:48:04;;;;;;;20.48;12.43;;;538.40;2406.40;;;;;;5070247;28;20029;-74
2023/09/28 06:50:30;;;;;;;15.93;9.45;;;563.20;2432.00;;;;;;5063880;28;20033;-75
2023/09/28 06:52:56;;;;;;;22.45;8.95;;;563.40;2432.00;;;;;;5064730;28;20114;-75
2023/09/28 06:55:23;;;;;;;15.07;8.27;;;563.70;2432.00;;;;;;5069729;28;20531;-75
2023/09/28 06:57:50;;;;;;;14.10;8.23;;;564.10;2432.00;;;;;;5068287;28;20052;-75
2023/09/28 07:00:17;;;;;;;14.02;7.70;;;588.80;2432.00;;;;;;5071941;28;20056;-74
2023/09/28 07:02:47;;;;;;;17.38;8.65;;;588.90;2432.00;;;;;;5070119;28;20086;-76
2023/09/28 07:05:16;;;;;;;23.17;8.90;;;589.20;2432.00;;;;;;5072668;28;20100;-75
2023/09/28 07:07:46;;;;;;;13.95;8.18;;;589.30;2432.00;;;;;;5074956;28;20050;-75
2023/09/28 07:10:13;;;;;;;20.40;8.65;;;589.40;2432.00;;;;;;5077444;28;20073;-75
2023/09/28 07:12:40;;;;;;;11.55;7.40;;;614.40;2432.00;;;;;;5063624;28;20456;-73
2023/09/28 07:15:07;;;;;;;15.40;7.43;;;614.50;2432.00;;;;;;5075383;28;20024;-76
2023/09/28 07:17:36;;;;;;;16.63;7.38;;;614.70;2432.00;;;;;;5068414;28;20642;-75
2023/09/28 07:20:03;;;;;;;14.13;8.00;;;614.80;2432.00;;;;;;5072624;28;20024;-75
2023/09/28 07:22:29;;;;;;;12.52;7.10;;;614.90;2432.00;;;;;;5067980;28;20392;-74
2023/09/28 07:24:56;;;;;;;11.65;7.50;;;615.00;2432.00;;;;;;5060351;28;20024;-75
2023/09/28 07:27:21;;;;;;;12.38;6.78;;;615.00;2432.00;;;;;;5074877;28;20119;-74
2023/09/28 07:29:48;;;;;;;16.17;7.38;;;640.00;2406.40;;;;;;5064627;28;20144;-75
2023/09/28 07:32:14;;;;;;;13.45;6.72;;;640.20;2380.80;;;;;;5060772;28;20025;-74
2023/09/28 07:34:42;;;;;;;10.63;6.90;;;640.10;2304.00;;;;;;5066142;28;20032;-76
2023/09/28 07:37:08;;;;;;;11.45;6.22;;;640.20;2201.60;;;;;;5064071;28;20113;-75
2023/09/28 07:39:33;;;;;;;14.75;6.43;;;640.40;2124.80;;;;;;5068541;28;20045;-77
2023/09/28 07:42:04;;;;;;;11.07;6.20;;;640.60;2073.60;;;;;;5072198;28;20477;-76
2023/09/28 07:44:30;;;;;;;17.35;5.53;;;640.80;2048.00;;;;;;5062438;28;20021;-73
2023/09/28 07:46:56;;;;;;;12.80;5.90;;;640.90;2022.40;;;;;;5073535;28;20024;-77
2023/09/28 07:49:21;;;;;;;15.75;6.88;;;665.60;1996.80;;;;;;5070358;28;20028;-76
2023/09/28 07:51:47;;;;;;;8.23;5.80;;;640.90;2048.00;;;;;;5074250;28;20103;-74
2023/09/28 07:54:13;;;;;;;11.20;6.03;;;665.70;1945.60;;;;;;5074996;28;20028;-75
2023/09/28 07:56:38;;;;;;;12.88;6.38;;;666.00;1945.60;;;;;;5070908;28;20047;-76
2023/09/28 07:59:04;;;;;;;8.93;5.20;;;666.20;1945.60;;;;;;5070632;28;20394;-74
2023/09/28 08:01:35;;;;;;;11.18;6.10;;;666.40;1920.00;;;;;;5070706;28;20035;-76
2023/09/28 08:04:02;;;;;;;18.13;6.30;;;666.50;1894.40;;;;;;5072373;28;20069;-75
2023/09/28 08:06:27;;;;;;;19.83;6.60;;;691.30;1920.00;;;;;;5070264;28;20063;-75
2023/09/28 08:08:53;;;;;;;11.93;6.00;;;691.60;1817.60;;;;;;5076370;28;20487;-75
2023/09/28 08:11:19;;;;;;;10.38;6.35;;;691.80;1766.40;;;;;;5072164;28;20033;-75
2023/09/28 08:13:44;;;;;;;17.05;5.57;;;691.90;1740.80;;;;;;5068758;28;20100;-75
2023/09/28 08:16:10;;;;;;;9.00;5.05;;;;;;;;;;5063766;28;20045;-75
2023/09/28 08:18:36;;;;;;;7.55;5.50;;;716.90;1689.60;;;;;;5068154;28;20048;-77
2023/09/28 08:21:03;;;;;;;9.05;4.88;;;717.00;1740.80;;;;;;5076448;28;20059;-76
2023/09/28 08:23:30;;;;;;;7.78;5.10;;;717.20;1664.00;;;;;;5069906;28;20017;-75
2023/09/28 08:25:57;;;;;;;12.85;5.65;;;717.10;1638.40;;;;;;5079350;28;20021;-76
2023/09/28 08:28:24;;;;;;;15.35;5.97;;;717.40;1638.40;;;;;;5070156;28;20059;-75
2023/09/28 08:30:49;;;;;;;10.45;4.47;;;717.60;1612.80;;;;;;5064793;28;20032;-75
2023/09/28 08:33:16;;;;;;;10.73;4.95;;;717.30;1587.20;;;;;;5069698;28;20024;-75
2023/09/28 08:35:48;;;;;;;11.50;4.80;;;717.20;1638.40;;;;;;5070260;28;20020;-75
2023/09/28 08:38:15;;;;;;;12.32;5.28;;;717.70;1587.20;;;;;;5064933;28;20112;-76
2023/09/28 08:40:41;;;;;;;11.20;5.45;;;717.70;1638.40;;;;;;5075203;28;20060;-74
2023/09/28 08:43:11;;;;;;;11.07;5.32;;;742.50;1561.60;;;;;;5077661;28;20083;-76
2023/09/28 08:45:40;;;;;;;13.95;5.47;;;742.50;1561.60;;;;;;5065000;28;20040;-75
2023/09/28 08:48:11;;;;;;;32.85;6.63;;;742.50;1561.60;;;;;;5066959;28;20051;-76
2023/09/28 08:50:39;;;;;;;13.93;5.28;;;742.60;1536.00;;;;;;5074414;28;20034;-75
2023/09/28 08:53:06;;;;;;;10.30;4.47;;;742.90;1459.20;;;;;;5061379;28;20112;-76
2023/09/28 08:55:33;;;;;;;9.73;4.93;;;742.90;1459.20;;;;;;5076078;28;20024;-75
2023/09/28 08:57:59;;;;;;;21.42;6.55;;;;;;;;;;5066813;28;20033;-76
2023/09/28 09:00:26;;;;;;;17.90;5.05;;;743.20;1459.20;;;;;;5076001;28;20524;-76
2023/09/28 09:02:52;;;;;;;13.43;4.85;;;743.30;1459.20;;;;;;5074493;28;20031;-76
2023/09/28 09:05:18;;;;;;;10.63;4.93;;;743.30;1433.60;;;;;;5082802;28;20029;-76
2023/09/28 09:07:44;;;;;;;9.55;5.10;;;768.10;1408.00;;;;;;5077605;28;20081;-75
2023/09/28 09:10:12;;;;;;;10.18;4.68;;;;;;;;;;5081689;28;20032;-75
2023/09/28 09:12:38;;;;;;;9.60;4.78;;;768.50;1356.80;;;;;;5071649;28;20025;-76
2023/09/28 09:15:07;;;;;;;6.80;4.20;;;768.60;1408.00;;;;;;5069263;28;20389;-75
2023/09/28 09:17:34;;;;;;;31.70;5.45;;;768.80;1356.80;;;;;;5061908;28;20059;-76
2023/09/28 09:20:00;;;;;;;12.20;4.28;;;768.90;1331.20;;;;;;5074186;28;20082;-76
2023/09/28 09:22:28;;;;;;;18.20;4.78;;;793.70;1305.60;;;;;;5072629;28;20085;-76
2023/09/28 09:24:54;;;;;;;8.25;4.70;;;793.90;1280.00;;;;;;5074632;28;20051;-77
2023/09/28 09:27:33;;;;;;;13.68;4.95;;;793.90;1280.00;;;;;;5075041;28;20020;-77
2023/09/28 09:30:06;;;;;;;6.50;4.40;;;794.00;1280.00;;;;;;5075009;28;20116;-76
2023/09/28 09:32:31;;;;;;;10.25;4.30;;;794.00;1280.00;;;;;;5075079;28;20017;-76
2023/09/28 09:34:57;;;;;;;8.68;4.32;;;794.10;1254.40;;;;;;5073749;28;20029;-77
2023/09/28 09:37:23;;;;;;;11.05;3.88;;;;;;;;;;5075009;28;20028;-76
2023/09/28 09:39:49;;;;;;;6.13;3.78;;;794.40;1254.40;;;;;;5074668;28;20044;-75
2023/09/28 09:42:26;;;;;;;6.10;4.15;;;794.30;1203.20;;;;;;5074837;28;20565;-76
2023/09/28 09:44:52;;;;;;;9.85;4.75;;;794.00;1228.80;;;;;;5074578;28;20031;-76
2023/09/28 09:47:19;;;;;;;9.70;4.35;;;793.60;1228.80;;;;;;5073688;28;20036;-76
2023/09/28 09:49:48;;;;;;;9.95;4.95;;;768.90;1228.80;;;;;;5074615;28;20028;-74
2023/09/28 09:52:15;;;;;;;8.13;3.92;;;768.60;1228.80;;;;;;5074821;28;20108;-76
2023/09/28 09:54:42;;;;;;;8.40;4.03;;;793.60;1228.80;;;;;;5074926;28;20040;-75
2023/09/28 09:57:11;;;;;;;12.73;4.30;;;768.50;1203.20;;;;;;5074889;28;20032;-77
2023/09/28 09:59:43;;;;;;;10.68;4.50;;;743.30;1177.60;;;;;;5074327;28;20418;-77
2023/09/28 10:02:21;;;;;;;13.32;4.88;;;768.40;1177.60;;;;;;5074705;28;20103;-76
2023/09/28 10:04:47;;;;;;;10.25;5.05;;;793.70;1228.80;;;;;;5074723;28;20070;-77
2023/09/28 10:07:15;;;;;;;18.92;4.75;;;794.00;1203.20;;;;;;5074662;28;20095;-76
2023/09/28 10:09:42;;;;;;;8.10;5.00;;;794.10;1177.60;;;;;;5074479;28;20042;-77
2023/09/28 10:12:08;;;;;;;6.20;4.22;;;794.20;1228.80;;;;;;5074389;28;20563;-77
2023/09/28 10:14:34;;;;;;;12.85;3.97;;;;;;;;;;5074217;28;20032;-77
2023/09/28 10:17:01;;;;;;;14.32;4.82;;;819.20;1177.60;;;;;;5074446;28;20220;-77
2023/09/28 10:19:27;;;;;;;11.23;4.50;;;819.50;1177.60;;;;;;5061240;28;20128;-76
2023/09/28 10:21:55;;;;;;;11.15;4.45;;;819.60;1152.00;;;;;;5074458;28;20098;-76
2023/09/28 10:24:32;;;;;;;12.30;5.38;;;819.60;1203.20;;;;;;5073908;28;20027;-76
2023/09/28 10:27:08;;;;;;;11.75;5.15;;;819.60;1177.60;;;;;;5074037;28;20021;-76
2023/09/28 10:29:34;;;;;;;10.50;4.85;;;819.70;1203.20;;;;;;5074080;28;20024;-74
2023/09/28 10:32:02;;;;;;;11.77;5.15;;;819.80;1177.60;;;;;;5073657;28;20016;-74
2023/09/28 10:34:29;;;;;;;12.57;4.55;;;819.80;1152.00;;;;;;5065728;28;20027;-74
2023/09/28 10:37:18;;;;;;;10.65;4.68;;;820.00;1177.60;;;;;;5076192;28;20028;-74
2023/09/28 10:39:54;;;;;;;11.70;4.32;;;819.90;1203.20;;;;;;5071476;28;20041;-75
2023/09/28 10:42:22;;;;;;;6.97;4.50;;;819.60;1152.00;;;;;;5074252;28;20029;-75
2023/09/28 10:44:50;;;;;;;12.40;5.13;;;819.80;1152.00;;;;;;5075595;28;20040;-74
2023/09/28 10:47:19;;;;;;;10.95;4.70;;;819.50;1177.60;;;;;;5069522;28;20040;-75
2023/09/28 10:49:45;;;;;;;12.63;5.10;;;819.80;1177.60;;;;;;5078443;28;20032;-75
2023/09/28 10:52:11;;;;;;;9.82;4.03;;;819.60;1152.00;;;;;;5074808;28;20107;-75
2023/09/28 10:54:38;;;;;;;10.82;4.70;;;819.60;1152.00;;;;;;5070760;28;20127;-75
2023/09/28 10:57:04;;;;;;;12.23;5.35;;;819.30;1152.00;;;;;;5069248;28;20094;-75
2023/09/28 10:59:30;;;;;;;6.68;4.95;;;819.60;1152.00;;;;;;5073257;28;20029;-75
2023/09/28 11:01:56;;;;;;;10.15;4.13;;;819.90;1177.60;;;;;;5089143;28;20020;-74
2023/09/28 11:04:22;;;;;;;8.13;4.75;;;820.10;1152.00;;;;;;5077784;28;20027;-74
2023/09/28 11:06:49;;;;;;;11.15;5.45;;;844.90;1177.60;;;;;;5071094;28;20020;-75
2023/09/28 11:09:19;;;;;;;12.27;4.80;;;844.90;1152.00;;;;;;5072664;28;20120;-75
2023/09/28 11:11:45;;;;;;;8.63;4.70;;;845.00;1152.00;;;;;;5069736;28;20028;-75
2023/09/28 11:14:13;;;;;;;6.75;4.60;;;845.10;1203.20;;;;;;5068346;28;20043;-75
2023/09/28 11:16:40;;;;;;;9.13;4.50;;;844.90;1126.40;;;;;;5072496;28;20024;-74
2023/09/28 11:19:06;;;;;;;11.20;4.53;;;844.80;1126.40;;;;;;5065454;28;20067;-75
2023/09/28 11:21:32;;;;;;;12.10;4.05;;;819.40;1152.00;;;;;;5072783;28;20420;-75
2023/09/28 11:23:58;;;;;;;8.38;4.15;;;819.20;1177.60;;;;;;5067409;28;20024;-74
2023/09/28 11:26:24;;;;;;;9.48;4.20;;;794.20;1152.00;;;;;;5072030;28;20016;-74
2023/09/28 11:28:51;;;;;;;7.93;4.28;;;819.60;1177.60;;;;;;5067646;28;20106;-75
2023/09/28 11:31:17;;;;;;;9.68;4.22;;;819.80;1152.00;;;;;;5074254;28;20517;-74
2023/09/28 11:33:46;;;;;;;8.32;4.18;;;820.00;1075.20;;;;;;5072056;28;20130;-75
2023/09/28 11:36:14;;;;;;;7.47;4.28;;;794.50;1126.40;;;;;;5070955;28;20017;-75
2023/09/28 11:38:40;;;;;;;9.52;4.53;;;819.30;1126.40;;;;;;5069507;28;20048;-74
2023/09/28 11:41:06;;;;;;;7.22;4.32;;;819.80;1100.80;;;;;;5066108;28;20052;-75
2023/09/28 11:43:52;;;;;;;11.13;4.90;;;820.00;1100.80;;;;;;5064860;28;20028;-75
2023/09/28 11:46:22;;;;;;;8.23;4.20;;;844.80;1152.00;;;;;;5071152;28;20017;-75
2023/09/28 11:49:01;;;;;;;8.80;4.82;;;844.90;1126.40;;;;;;5061718;28;20103;-74
2023/09/28 11:51:29;;;;;;;8.23;4.60;;;819.80;1075.20;;;;;;5069105;28;20029;-75
2023/09/28 11:53:55;;;;;;;9.18;4.75;;;819.60;1100.80;;;;;;5075493;28;20013;-75
2023/09/28 11:56:22;;;;;;;9.80;4.22;;;820.10;1075.20;;;;;;5062131;28;20089;-74
2023/09/28 11:58:48;;;;;;;13.10;4.38;;;820.10;1075.20;;;;;;5070591;28;20016;-74
2023/09/28 12:01:14;;;;;;;10.95;4.90;;;820.10;1075.20;;;;;;5066903;28;20043;-74
2023/09/28 12:03:39;;;;;;;6.18;4.13;;;819.80;1075.20;;;;;;5067475;28;20463;-74
2023/09/28 12:06:05;;;;;;;9.63;4.30;;;819.60;1126.40;;;;;;5069253;28;20052;-75
2023/09/28 12:08:31;;;;;;;7.72;3.72;;;819.80;1075.20;;;;;;5064246;28;20457;-74